Sweetwater, TX

4:24 AM CDT on August 22, 2017 (GMT -0500)
Avenger

Weather History for KSWW - February, 2014

Change the Weather History Date:

Thursday, February 20, 2014

  Actual Average Record
Temperature  
Mean Temperature 56 °F -  
Max Temperature 66 °F 65 °F 83 °F (2015)
Min Temperature 44 °F 38 °F 44 °F (2014)
Degree Days  
Heating Degree Days 9    
Growing Degree Days 6 (Base 50)    
Moisture  
Dew Point 31 °F    
Average Humidity 39    
Maximum Humidity 73    
Minimum Humidity 15    
Precipitation  
Precipitation 0.00 in - - ()
Sea Level Pressure  
Sea Level Pressure 29.94 in    
Wind  
Wind Speed 17 mph (WNW)    
Max Wind Speed 31 mph    
Max Gust Speed 38 mph    
Visibility 10 miles    
Events      
Averages and records for this station are not official NWS values.
T = Trace of Precipitation, MM = Missing Value Source: NWS Daily Summary

Daily Weather History Graph

Daily Weather History Graph

Search for Another Location

Airport or City:

Trip Planner

Search our weather history database for the weather conditions in past years. The results will help you decide how hot, cold, wet, or windy it might be!

Date:

Astronomy

Feb. 20, 2014 Rise Set
Actual Time 7:19 AM CST 6:32 PM CST
Civil Twilight 6:54 AM CST 6:57 PM CST
Nautical Twilight 6:25 AM CST 7:25 PM CST
Astronomical Twilight 5:57 AM CST 7:54 PM CST
Moon No Moon Rise 10:23 AM CST (2/20)
Length of Visible Light 12h 02m
Length of Day
11h 12m
Waning Gibbous, 70% of the Moon is Illuminated
Feb 20
Waning Gibbous
Feb 22
Last Quarter
Mar 1
New
Mar 8
First Quarter
Mar 16
Full

Hourly Weather History & Observations

Time (CST) Temp. Windchill Dew Point Humidity Pressure Visibility Wind Dir Wind Speed Gust Speed Precip Events Conditions
12:15 AM 66.7 °F - 55.6 °F 67% 29.66 in 10.0 mi South 21.9 mph 27.6 mph N/A   Clear
12:35 AM 66.2 °F - 55.8 °F 69% 29.66 in 10.0 mi South 20.7 mph 26.5 mph N/A   Clear
12:55 AM 65.8 °F - 55.4 °F 69% 29.66 in 10.0 mi SSW 20.7 mph 26.5 mph N/A   Clear
1:15 AM 66.2 °F - 55.4 °F 68% 29.66 in 10.0 mi SSW 23.0 mph - N/A   Clear
1:35 AM 66.2 °F - 55.4 °F 68% 29.66 in 10.0 mi SSW 21.9 mph - N/A   Clear
1:55 AM 65.3 °F - 55.4 °F 70% 29.66 in 10.0 mi SSW 18.4 mph - N/A   Clear
2:15 AM 65.1 °F - 55.2 °F 70% 29.66 in 10.0 mi SSW 20.7 mph - N/A   Clear
2:35 AM 64.8 °F - 54.7 °F 70% 29.66 in 10.0 mi SSW 20.7 mph - N/A   Clear
2:55 AM 64.9 °F - 54.5 °F 69% 29.66 in 10.0 mi SSW 21.9 mph 26.5 mph N/A   Clear
3:15 AM 64.8 °F - 54.5 °F 69% 29.66 in 10.0 mi SSW 21.9 mph 27.6 mph N/A   Clear
3:35 AM 64.4 °F - 54.5 °F 70% 29.67 in 10.0 mi SSW 19.6 mph - N/A   Clear
3:55 AM 64.2 °F - 54.5 °F 71% 29.68 in 10.0 mi SSW 19.6 mph - N/A   Clear
4:15 AM 63.5 °F - 54.5 °F 72% 29.69 in 10.0 mi SSW 18.4 mph - N/A   Clear
4:35 AM 63.5 °F - 54.5 °F 72% 29.70 in 10.0 mi SSW 17.3 mph - N/A   Clear
4:55 AM 62.6 °F - 54.0 °F 73% 29.70 in 10.0 mi SSW 17.3 mph - N/A   Clear
5:15 AM 62.2 °F - 53.4 °F 73% 29.72 in 10.0 mi SW 15.0 mph - N/A   Clear
5:35 AM 62.6 °F - 52.5 °F 70% 29.73 in 10.0 mi SW 16.1 mph - N/A   Clear
5:55 AM 62.1 °F - 50.9 °F 67% 29.74 in 10.0 mi SW 13.8 mph - N/A   Clear
6:15 AM 62.8 °F - 48.0 °F 59% 29.76 in 10.0 mi SW 13.8 mph - N/A   Clear
6:35 AM 60.4 °F - 48.4 °F 64% 29.79 in 10.0 mi West 9.2 mph - N/A   Clear
6:55 AM 60.8 °F - 41.5 °F 49% 29.80 in 10.0 mi West 10.4 mph 19.6 mph N/A   Clear
7:15 AM 59.7 °F - 35.2 °F 40% 29.81 in 10.0 mi West 12.7 mph - N/A   Clear
7:35 AM 59.4 °F - 26.6 °F 29% 29.83 in 10.0 mi West 12.7 mph - N/A   Clear
7:55 AM 59.2 °F - 24.4 °F 26% 29.85 in 10.0 mi WNW 13.8 mph - N/A   Clear
8:15 AM 59.4 °F - 22.6 °F 24% 29.87 in 10.0 mi WNW 16.1 mph - N/A   Clear
8:35 AM 60.8 °F - 22.3 °F 23% 29.89 in 10.0 mi WNW 13.8 mph - N/A   Clear
8:55 AM 61.9 °F - 21.0 °F 21% 29.89 in 10.0 mi West 18.4 mph 27.6 mph N/A   Clear
9:15 AM 63.5 °F - 15.8 °F 16% 29.91 in 10.0 mi WNW 20.7 mph 29.9 mph N/A   Clear
9:35 AM 63.9 °F - 14.4 °F 15% 29.92 in 10.0 mi WNW 31.1 mph 38.0 mph N/A   Clear
9:55 AM 63.7 °F - 16.0 °F 16% 29.94 in 10.0 mi NNW 26.5 mph 35.7 mph N/A   Clear
10:15 AM 61.2 °F - 22.8 °F 23% 29.96 in 7.0 mi NNW 23.0 mph 32.2 mph N/A   Clear
10:35 AM 59.2 °F - 26.6 °F 29% 29.98 in 7.0 mi NNW 23.0 mph 29.9 mph N/A   Clear
10:55 AM 59.2 °F - 27.7 °F 30% 29.99 in 10.0 mi NNW 21.9 mph 26.5 mph N/A   Clear
11:15 AM 59.4 °F - 27.7 °F 30% 30.01 in 10.0 mi NNW 19.6 mph 26.5 mph N/A   Clear
11:35 AM 59.4 °F - 27.5 °F 30% 30.02 in 10.0 mi NW 19.6 mph 25.3 mph N/A   Clear
11:55 AM 59.2 °F - 27.9 °F 30% 30.02 in 10.0 mi NNW 16.1 mph 21.9 mph N/A   Clear
12:15 PM 59.5 °F - 28.6 °F 31% 30.03 in 10.0 mi North 20.7 mph 25.3 mph N/A   Clear
12:35 PM 58.8 °F - 28.2 °F 31% 30.04 in 10.0 mi NNW 17.3 mph 23.0 mph N/A   Clear
12:55 PM 58.1 °F - 27.5 °F 31% 30.04 in 10.0 mi NNW 20.7 mph 25.3 mph N/A   Clear
1:15 PM 58.8 °F - 27.1 °F 30% 30.05 in 10.0 mi North 16.1 mph 21.9 mph N/A   Clear
1:35 PM 58.5 °F - 26.8 °F 30% 30.05 in 10.0 mi NNW 13.8 mph 24.2 mph N/A   Clear
1:55 PM 58.3 °F - 26.4 °F 30% 30.04 in 10.0 mi North 16.1 mph 24.2 mph N/A   Clear
2:15 PM 58.3 °F - 25.7 °F 29% 30.04 in 10.0 mi NNW 16.1 mph 23.0 mph N/A   Clear
2:35 PM 58.6 °F - 25.5 °F 28% 30.05 in 10.0 mi WNW 10.4 mph - N/A   Clear
2:55 PM 59.4 °F - 24.4 °F 26% 30.04 in 10.0 mi WNW 12.7 mph 18.4 mph N/A   Clear
3:15 PM 59.4 °F - 24.6 °F 26% 30.05 in 10.0 mi NNW 11.5 mph 19.6 mph N/A   Clear
3:35 PM 58.6 °F - 24.6 °F 27% 30.05 in 10.0 mi Calm Calm - N/A   Clear
3:55 PM 59.7 °F - 25.0 °F 26% 30.06 in 10.0 mi NNW 15.0 mph 23.0 mph N/A   Clear
4:15 PM 59.9 °F - 25.0 °F 26% 30.07 in 10.0 mi North 15.0 mph - N/A   Clear
4:35 PM 59.2 °F - 23.0 °F 25% 30.07 in 10.0 mi North 13.8 mph 21.9 mph N/A   Unknown
4:55 PM 59.2 °F - 20.8 °F 23% 30.07 in 10.0 mi NNW 11.5 mph - N/A   Clear
5:15 PM 58.8 °F - 19.9 °F 22% 30.08 in 10.0 mi NNW 12.7 mph 16.1 mph N/A   Clear
5:35 PM 57.6 °F - 18.7 °F 22% 30.08 in 10.0 mi North 11.5 mph 17.3 mph N/A   Clear
5:55 PM 56.7 °F - 18.5 °F 23% 30.08 in 10.0 mi North 10.4 mph - N/A   Clear
6:15 PM 55.4 °F - 18.5 °F 24% 30.09 in 10.0 mi North 9.2 mph - N/A   Clear
6:35 PM 53.1 °F - 18.5 °F 26% 30.09 in 10.0 mi NNE 5.8 mph - N/A   Clear
6:55 PM 51.3 °F - 18.3 °F 27% 30.10 in 10.0 mi NNE 4.6 mph - N/A   Clear
7:15 PM 50.2 °F - 18.0 °F 28% 30.11 in 10.0 mi NNE 4.6 mph - N/A   Clear
7:35 PM 49.3 °F - 17.6 °F 28% 30.12 in 10.0 mi NE 4.6 mph - N/A   Clear
7:55 PM 48.0 °F - 17.4 °F 30% 30.12 in 10.0 mi NE 5.8 mph - N/A   Clear
8:15 PM 49.1 °F - 17.4 °F 28% 30.12 in 10.0 mi East 4.6 mph - N/A   Clear
8:35 PM 49.1 °F - 16.9 °F 28% 30.13 in 10.0 mi East 4.6 mph - N/A   Clear
8:55 PM 49.1 °F - 16.7 °F 28% 30.13 in 10.0 mi East 4.6 mph - N/A   Clear
9:15 PM 48.4 °F - 16.5 °F 28% 30.13 in 10.0 mi East 5.8 mph - N/A   Clear
9:35 PM 47.7 °F - 16.5 °F 29% 30.13 in 10.0 mi East 4.6 mph - N/A   Clear
9:55 PM 47.5 °F - 16.5 °F 29% 30.14 in 10.0 mi East 4.6 mph - N/A   Clear
10:15 PM 48.2 °F - 15.8 °F 27% 30.15 in 10.0 mi East 4.6 mph - N/A   Clear
10:35 PM 47.3 °F - 16.0 °F 29% 30.15 in 10.0 mi SE 4.6 mph - N/A   Clear
10:55 PM 47.7 °F - 16.0 °F 28% 30.15 in 10.0 mi East 3.5 mph - N/A   Clear
11:15 PM 46.8 °F - 15.8 °F 29% 30.16 in 10.0 mi ESE 3.5 mph - N/A   Clear
11:35 PM 46.8 °F - 15.8 °F 29% 30.15 in 10.0 mi ESE 3.5 mph - N/A   Clear
11:55 PM 44.8 °F 41.6 °F 16.9 °F 33% 30.16 in 10.0 mi SSE 5.8 mph - N/A   Clear